Time;durP1;ratioP1;P1;durP2;ratioP2;P2;SDS_P1;SDS_P2;PMS_P1;PMS_P2;Temp;Humidity;BMP_temperature;BMP_pressure;BME280_temperature;BME280_humidity;BME280_pressure;Samples;Min_cycle;Max_cycle;Signal;HPM_P1;HPM_P2
2021/12/28 00:02:07;;;;;;;69.73;30.30;;;-6.40;99.90;;;;;;5110820;28;20027;-74
2021/12/28 00:04:33;;;;;;;78.05;32.38;;;-6.40;99.90;;;;;;5106759;28;20020;-73
2021/12/28 00:06:58;;;;;;;65.68;26.23;;;-6.40;99.90;;;;;;5090460;28;20027;-73
2021/12/28 00:09:24;;;;;;;80.23;30.57;;;-6.40;99.90;;;;;;5092470;28;20063;-73
2021/12/28 00:11:50;;;;;;;85.13;32.27;;;-6.40;99.90;;;;;;5091635;28;20073;-73
2021/12/28 00:14:16;;;;;;;90.35;38.25;;;-6.30;99.90;;;;;;5092522;28;20385;-73
2021/12/28 00:19:27;;;;;;;75.38;33.03;;;-6.30;99.90;;;;;;5078294;28;20063;-73
2021/12/28 00:21:53;;;;;;;62.45;23.17;;;-6.30;99.90;;;;;;5091242;28;20055;-75
2021/12/28 00:24:19;;;;;;;79.20;31.98;;;-6.30;99.90;;;;;;5092262;28;20028;-73
2021/12/28 00:26:44;;;;;;;82.03;33.55;;;-6.30;99.90;;;;;;5092252;28;20023;-74
2021/12/28 00:29:10;;;;;;;88.20;32.38;;;-6.30;99.90;;;;;;5092201;28;20028;-73
2021/12/28 00:31:35;;;;;;;59.05;26.50;;;-6.30;99.90;;;;;;5092295;28;20028;-74
2021/12/28 00:34:01;;;;;;;69.10;28.98;;;-6.20;99.90;;;;;;5092187;28;20497;-73
2021/12/28 00:36:27;;;;;;;66.93;31.50;;;-6.20;99.90;;;;;;5090788;28;20429;-75
2021/12/28 00:38:54;;;;;;;70.47;32.03;;;-6.20;99.90;;;;;;5092350;28;20028;-73
2021/12/28 00:41:20;;;;;;;78.65;29.95;;;-6.20;99.90;;;;;;5112442;28;20020;-74
2021/12/28 00:43:46;;;;;;;68.75;28.13;;;-6.20;99.90;;;;;;5110949;28;20081;-74
2021/12/28 00:46:11;;;;;;;87.53;33.95;;;-6.20;99.90;;;;;;5112556;28;20031;-74
2021/12/28 00:48:37;;;;;;;79.55;30.02;;;-6.10;99.90;;;;;;5110907;28;20024;-74
2021/12/28 00:51:05;;;;;;;69.47;31.30;;;-6.10;99.90;;;;;;5112299;28;20027;-73
2021/12/28 00:53:31;;;;;;;62.35;26.15;;;-6.10;99.90;;;;;;5110911;28;20018;-74
2021/12/28 00:55:57;;;;;;;67.15;27.63;;;-6.10;99.90;;;;;;5110816;28;20034;-73
2021/12/28 00:58:23;;;;;;;95.30;37.20;;;-6.10;99.90;;;;;;5110872;28;20027;-74
2021/12/28 01:00:50;;;;;;;82.60;32.75;;;-6.10;99.90;;;;;;5112054;28;20504;-73
2021/12/28 01:03:16;;;;;;;82.63;34.65;;;-6.10;99.90;;;;;;5110771;28;20023;-73
2021/12/28 01:05:43;;;;;;;75.95;30.40;;;-6.00;99.90;;;;;;5111597;28;20091;-73
2021/12/28 01:08:09;;;;;;;80.80;31.52;;;-6.00;99.90;;;;;;5112021;28;20098;-74
2021/12/28 01:10:45;;;;;;;81.35;32.70;;;-6.00;99.90;;;;;;5111839;28;20084;-73
2021/12/28 01:13:12;;;;;;;57.15;26.20;;;-6.00;99.90;;;;;;5112024;27;20111;-73
2021/12/28 01:15:38;;;;;;;75.07;28.05;;;-6.00;99.90;;;;;;5111859;28;20019;-73
2021/12/28 01:18:04;;;;;;;65.75;28.90;;;-6.00;99.90;;;;;;5111951;28;20028;-73
2021/12/28 01:20:30;;;;;;;73.30;31.50;;;-6.00;99.90;;;;;;5111866;28;20030;-73
2021/12/28 01:22:56;;;;;;;64.72;28.58;;;-6.00;99.90;;;;;;5111804;28;20023;-74
2021/12/28 01:25:23;;;;;;;71.65;30.30;;;-6.00;99.90;;;;;;5111725;28;20028;-73
2021/12/28 01:27:49;;;;;;;68.40;27.25;;;-6.00;99.90;;;;;;5111712;28;20389;-74
2021/12/28 01:30:17;;;;;;;79.30;31.40;;;-6.00;99.90;;;;;;5110187;28;20035;-74
2021/12/28 01:32:43;;;;;;;75.13;29.95;;;-6.00;99.90;;;;;;5111643;28;20111;-73
2021/12/28 01:35:11;;;;;;;69.28;29.40;;;-6.00;99.90;;;;;;5110308;28;20520;-73
2021/12/28 01:37:37;;;;;;;78.22;31.25;;;-6.00;99.90;;;;;;5111639;28;20020;-74
2021/12/28 01:40:09;;;;;;;74.18;30.25;;;-5.90;99.90;;;;;;5111433;28;20026;-73
2021/12/28 01:42:54;;;;;;;68.23;27.50;;;-6.00;99.90;;;;;;5111446;28;20033;-74
2021/12/28 01:45:34;;;;;;;71.97;29.08;;;-5.90;99.90;;;;;;5104806;28;20103;-73
2021/12/28 01:48:00;;;;;;;61.42;21.40;;;-5.90;99.90;;;;;;5103485;28;20048;-73
2021/12/28 01:50:25;;;;;;;58.67;27.58;;;-5.90;99.90;;;;;;5090639;28;20063;-73
2021/12/28 01:52:51;;;;;;;67.82;30.50;;;-6.00;99.90;;;;;;5090964;28;20027;-74
2021/12/28 01:55:17;;;;;;;57.53;24.75;;;-6.00;99.90;;;;;;5109325;28;20373;-73
2021/12/28 01:57:44;;;;;;;60.65;25.27;;;-6.00;99.90;;;;;;5111475;28;20020;-74
2021/12/28 02:00:11;;;;;;;64.30;25.63;;;-6.00;99.90;;;;;;5111436;28;20022;-73
2021/12/28 02:02:36;;;;;;;60.30;24.48;;;-5.90;99.90;;;;;;5109922;28;20035;-74
2021/12/28 02:05:03;;;;;;;66.63;23.50;;;-5.90;99.90;;;;;;5110138;28;20028;-73
2021/12/28 02:07:29;;;;;;;64.10;26.60;;;-6.00;99.90;;;;;;5111381;28;20047;-75
2021/12/28 02:09:55;;;;;;;72.18;28.58;;;-5.90;99.90;;;;;;5111293;28;20108;-73
2021/12/28 02:12:21;;;;;;;54.05;22.83;;;-5.90;99.90;;;;;;5110061;28;20012;-74
2021/12/28 02:14:47;;;;;;;61.67;23.77;;;-5.90;99.90;;;;;;5102803;28;20028;-73
2021/12/28 02:17:14;;;;;;;69.43;29.00;;;-6.00;99.90;;;;;;5092902;28;20028;-74
2021/12/28 02:19:40;;;;;;;66.10;27.77;;;-5.90;99.90;;;;;;5093400;28;20032;-73
2021/12/28 02:22:06;;;;;;;64.80;27.13;;;-5.90;99.90;;;;;;5094759;28;20550;-74
2021/12/28 02:24:31;;;;;;;74.40;33.38;;;-5.90;99.90;;;;;;5094617;28;20024;-74
2021/12/28 02:26:57;;;;;;;64.50;26.20;;;-5.90;99.90;;;;;;5093401;28;20512;-75
2021/12/28 02:29:22;;;;;;;69.68;27.83;;;-5.90;99.90;;;;;;5093159;28;20101;-73
2021/12/28 02:31:50;;;;;;;64.57;27.25;;;-5.90;99.90;;;;;;5094592;28;20028;-73
2021/12/28 02:34:16;;;;;;;66.50;27.17;;;-5.90;99.90;;;;;;5094509;28;20473;-73
2021/12/28 02:36:42;;;;;;;62.15;26.58;;;-5.90;99.90;;;;;;5094767;28;20028;-74
2021/12/28 02:39:07;;;;;;;69.18;29.80;;;-5.90;99.90;;;;;;5093101;28;20024;-73
2021/12/28 02:41:33;;;;;;;72.68;31.90;;;-5.90;99.90;;;;;;5094389;28;20024;-74
2021/12/28 02:44:01;;;;;;;59.13;25.23;;;-5.90;99.90;;;;;;5092993;28;20066;-73
2021/12/28 02:46:27;;;;;;;74.68;29.15;;;-5.90;99.90;;;;;;5092856;28;20457;-73
2021/12/28 02:48:52;;;;;;;60.30;26.00;;;-5.80;99.90;;;;;;5094222;28;20283;-73
2021/12/28 02:51:18;;;;;;;66.10;29.80;;;-5.80;99.90;;;;;;5092907;28;20386;-75
2021/12/28 02:53:45;;;;;;;75.07;31.20;;;-5.80;99.90;;;;;;5094160;28;20027;-74
2021/12/28 02:56:12;;;;;;;53.92;23.35;;;-5.80;99.90;;;;;;5092754;28;20043;-73
2021/12/28 02:58:44;;;;;;;72.35;29.50;;;-5.80;99.90;;;;;;5094027;28;20452;-73
2021/12/28 03:01:15;;;;;;;60.97;28.92;;;-5.80;99.90;;;;;;5093984;28;20024;-73
2021/12/28 03:03:43;;;;;;;70.20;26.95;;;-5.80;99.90;;;;;;5092699;28;20032;-74
2021/12/28 03:06:12;;;;;;;64.18;25.75;;;-5.80;99.90;;;;;;5093867;28;20024;-73
2021/12/28 03:08:40;;;;;;;68.05;28.67;;;-5.80;99.90;;;;;;5094151;28;20390;-73
2021/12/28 03:11:08;;;;;;;63.95;30.17;;;-5.80;99.90;;;;;;5093822;28;20032;-73
2021/12/28 03:13:42;;;;;;;73.93;27.98;;;-5.80;99.90;;;;;;5092438;28;20027;-74
2021/12/28 03:16:09;;;;;;;65.38;29.58;;;-5.80;99.90;;;;;;5092443;28;20397;-74
2021/12/28 03:18:35;;;;;;;78.82;30.23;;;-5.70;99.90;;;;;;5092414;28;20016;-73
2021/12/28 03:21:04;;;;;;;67.20;27.13;;;-5.80;99.90;;;;;;5093763;28;20485;-73
2021/12/28 03:23:30;;;;;;;70.28;28.95;;;-5.80;99.90;;;;;;5093794;28;20016;-73
2021/12/28 03:25:56;;;;;;;71.88;28.52;;;-5.80;99.90;;;;;;5093395;28;20096;-73
2021/12/28 03:28:29;;;;;;;78.80;29.52;;;-5.80;99.90;;;;;;5093239;28;20032;-73
2021/12/28 03:30:57;;;;;;;74.68;26.92;;;-5.80;99.90;;;;;;5092179;28;20122;-73
2021/12/28 03:33:25;;;;;;;62.25;25.50;;;-5.80;99.90;;;;;;5093424;28;20470;-73
2021/12/28 03:35:51;;;;;;;76.80;32.75;;;-5.80;99.90;;;;;;5092058;28;20020;-73
2021/12/28 03:38:18;;;;;;;77.13;29.33;;;-5.80;99.90;;;;;;5093342;28;20024;-74
2021/12/28 03:40:44;;;;;;;70.55;29.20;;;-5.80;99.90;;;;;;5091807;28;20531;-73
2021/12/28 03:43:10;;;;;;;70.60;31.52;;;-5.70;99.90;;;;;;5093269;28;20023;-73
2021/12/28 03:45:36;;;;;;;79.13;31.20;;;-5.70;99.90;;;;;;5091653;28;20394;-73
2021/12/28 03:48:04;;;;;;;75.05;32.08;;;-5.70;99.90;;;;;;5093136;28;20031;-74
2021/12/28 03:50:31;;;;;;;66.78;28.13;;;-5.80;99.90;;;;;;5091576;28;20533;-74
2021/12/28 03:52:56;;;;;;;59.08;26.27;;;-5.80;99.90;;;;;;5091727;28;20028;-73
2021/12/28 03:55:23;;;;;;;55.58;26.60;;;-5.70;99.90;;;;;;5092841;28;20035;-72
2021/12/28 03:57:50;;;;;;;62.75;28.55;;;-5.70;99.90;;;;;;5093024;28;20024;-73
2021/12/28 04:00:19;;;;;;;63.05;28.98;;;-5.70;99.90;;;;;;5092926;28;20023;-73
2021/12/28 04:02:45;;;;;;;74.57;30.77;;;-5.70;99.90;;;;;;5092833;28;20027;-74
2021/12/28 04:05:10;;;;;;;72.43;27.50;;;-5.70;99.90;;;;;;5091374;28;20024;-73
2021/12/28 04:07:37;;;;;;;79.40;33.35;;;-5.70;99.90;;;;;;5091339;28;20393;-73
2021/12/28 04:10:04;;;;;;;69.75;30.00;;;-5.70;99.90;;;;;;5092583;28;20485;-73
2021/12/28 04:12:31;;;;;;;79.80;32.50;;;-5.70;99.90;;;;;;5091346;28;20435;-73
2021/12/28 04:14:58;;;;;;;66.55;27.65;;;-5.70;99.90;;;;;;5091241;28;20115;-75
2021/12/28 04:17:25;;;;;;;69.60;28.42;;;-5.70;99.90;;;;;;5092574;28;20028;-73
2021/12/28 04:19:51;;;;;;;71.40;29.00;;;-5.70;99.90;;;;;;5091223;28;20070;-74
2021/12/28 04:22:17;;;;;;;74.47;30.73;;;-5.80;99.90;;;;;;5092580;28;20024;-74
2021/12/28 04:24:43;;;;;;;69.32;28.23;;;-5.80;99.90;;;;;;5092340;28;20485;-73
2021/12/28 04:27:08;;;;;;;66.47;26.85;;;-5.80;99.90;;;;;;5092268;28;20107;-73
2021/12/28 04:29:34;;;;;;;75.18;32.47;;;-5.80;99.90;;;;;;5092127;28;20111;-73
2021/12/28 04:32:00;;;;;;;89.03;33.83;;;-5.80;99.90;;;;;;5092343;28;20073;-75
2021/12/28 04:34:25;;;;;;;77.82;30.77;;;-5.80;99.90;;;;;;5092273;28;20301;-73
2021/12/28 04:36:51;;;;;;;85.18;35.80;;;-5.80;99.90;;;;;;5090884;28;20119;-74
2021/12/28 04:39:17;;;;;;;83.55;32.30;;;-5.80;99.90;;;;;;5091492;28;20103;-73
2021/12/28 04:41:43;;;;;;;64.55;28.10;;;-5.80;99.90;;;;;;5090718;28;20059;-74
2021/12/28 04:44:12;;;;;;;73.32;27.48;;;-5.80;99.90;;;;;;5092146;28;20089;-73
2021/12/28 04:46:38;;;;;;;86.05;34.10;;;-5.80;99.90;;;;;;5092008;28;20020;-73
2021/12/28 04:49:04;;;;;;;85.47;34.25;;;-5.80;99.90;;;;;;5090573;28;20032;-73
2021/12/28 04:51:29;;;;;;;87.55;34.20;;;-5.70;99.90;;;;;;5090625;28;20116;-75
2021/12/28 04:53:56;;;;;;;75.80;32.95;;;-5.80;99.90;;;;;;5090584;28;20048;-73
2021/12/28 04:56:23;;;;;;;77.20;31.35;;;-5.80;99.90;;;;;;5091838;28;20422;-73
2021/12/28 04:58:49;;;;;;;78.57;29.65;;;-5.80;99.90;;;;;;5091765;28;20500;-73
2021/12/28 05:01:15;;;;;;;83.22;29.88;;;-5.90;99.90;;;;;;5090397;28;20012;-74
2021/12/28 05:03:40;;;;;;;86.55;32.25;;;-5.90;99.90;;;;;;5091761;28;20024;-73
2021/12/28 05:06:06;;;;;;;76.07;30.85;;;-5.80;99.90;;;;;;5090270;28;20522;-73
2021/12/28 05:08:32;;;;;;;82.85;33.33;;;-5.80;99.90;;;;;;5091585;28;20482;-74
2021/12/28 05:10:58;;;;;;;81.15;31.02;;;-5.90;99.90;;;;;;5090185;28;20032;-73
2021/12/28 05:13:24;;;;;;;83.68;31.20;;;-5.80;99.90;;;;;;5090363;28;20024;-74
2021/12/28 05:15:52;;;;;;;66.85;25.92;;;-5.80;99.90;;;;;;5091561;28;20031;-73
2021/12/28 05:18:18;;;;;;;80.85;32.22;;;-5.80;99.90;;;;;;5090125;28;20016;-73
2021/12/28 05:20:44;;;;;;;77.05;30.02;;;-5.80;99.90;;;;;;5091489;28;20027;-73
2021/12/28 05:23:10;;;;;;;70.63;29.15;;;-5.70;99.90;;;;;;5091529;28;20051;-73
2021/12/28 05:25:37;;;;;;;73.20;27.02;;;-5.80;99.90;;;;;;5091732;28;20091;-73
2021/12/28 05:28:04;;;;;;;62.88;26.13;;;-5.70;99.90;;;;;;5090049;28;20034;-74
2021/12/28 05:30:29;;;;;;;63.58;24.42;;;-5.70;99.90;;;;;;5090189;28;20036;-73
2021/12/28 05:32:55;;;;;;;71.40;29.50;;;-5.80;99.90;;;;;;5091447;28;20023;-74
2021/12/28 05:35:21;;;;;;;70.38;29.08;;;-5.80;99.90;;;;;;5089958;28;20021;-73
2021/12/28 05:37:47;;;;;;;63.50;24.92;;;-5.70;99.90;;;;;;5101092;28;20019;-73
2021/12/28 05:40:14;;;;;;;64.72;27.02;;;-5.80;99.90;;;;;;5110270;28;20473;-74
2021/12/28 05:42:40;;;;;;;59.05;23.60;;;-5.80;99.90;;;;;;5097136;28;20028;-73
2021/12/28 05:45:07;;;;;;;63.13;27.60;;;-5.80;99.90;;;;;;5089693;28;20035;-73
2021/12/28 05:47:33;;;;;;;64.70;26.13;;;-5.80;99.90;;;;;;5088303;28;20255;-73
2021/12/28 05:49:59;;;;;;;58.35;23.90;;;-5.80;99.90;;;;;;5087936;28;20070;-73
2021/12/28 05:52:24;;;;;;;62.22;26.02;;;-5.80;99.90;;;;;;5095255;28;20052;-74
2021/12/28 05:54:50;;;;;;;72.30;26.63;;;-5.80;99.90;;;;;;5112729;28;20455;-73
2021/12/28 05:57:16;;;;;;;56.25;24.98;;;-5.80;99.90;;;;;;5114186;28;20019;-73
2021/12/28 05:59:42;;;;;;;53.63;21.75;;;-5.90;99.90;;;;;;5113103;28;20012;-73
2021/12/28 06:02:08;;;;;;;61.55;23.92;;;-5.90;99.90;;;;;;5114121;28;20027;-73
2021/12/28 06:04:33;;;;;;;57.65;23.02;;;-5.90;99.90;;;;;;5100139;28;20020;-73
2021/12/28 06:06:59;;;;;;;57.58;24.08;;;-5.90;99.90;;;;;;5094902;28;20529;-74
2021/12/28 06:09:25;;;;;;;57.08;25.02;;;-5.80;99.90;;;;;;5094774;28;20397;-73
2021/12/28 06:11:51;;;;;;;67.10;25.48;;;-5.80;99.90;;;;;;5094899;28;20470;-73
2021/12/28 06:14:17;;;;;;;59.50;26.75;;;-5.80;99.90;;;;;;5094748;28;20099;-73
2021/12/28 06:16:42;;;;;;;54.05;23.20;;;-5.80;99.90;;;;;;5094633;28;20299;-73
2021/12/28 06:19:08;;;;;;;57.03;22.20;;;-5.80;99.90;;;;;;5094622;28;20405;-73
2021/12/28 06:21:34;;;;;;;57.72;26.05;;;-5.80;99.90;;;;;;5093289;28;20016;-75
2021/12/28 06:24:01;;;;;;;72.05;27.88;;;-5.80;99.90;;;;;;5093653;28;20381;-73
2021/12/28 06:26:28;;;;;;;70.07;27.83;;;-5.80;99.90;;;;;;5094428;28;20027;-73
2021/12/28 06:28:53;;;;;;;66.47;27.30;;;-5.80;99.90;;;;;;5094505;28;20092;-73
2021/12/28 06:31:19;;;;;;;67.18;26.80;;;-5.80;99.90;;;;;;5094456;28;20028;-73
2021/12/28 06:33:45;;;;;;;69.65;31.20;;;-5.80;99.90;;;;;;5094293;28;20444;-74
2021/12/28 06:36:11;;;;;;;72.13;29.38;;;-5.70;99.90;;;;;;5111563;28;20385;-73
2021/12/28 06:38:36;;;;;;;68.38;28.45;;;-5.70;99.90;;;;;;5110793;28;20031;-73
2021/12/28 06:41:03;;;;;;;75.22;29.35;;;-5.70;99.90;;;;;;5094455;28;20032;-73
2021/12/28 06:43:29;;;;;;;69.60;30.38;;;-5.70;99.90;;;;;;5094178;28;20072;-73
2021/12/28 06:45:55;;;;;;;75.65;31.00;;;-5.70;99.90;;;;;;5094281;28;20108;-73
2021/12/28 06:48:22;;;;;;;78.40;30.05;;;-5.70;99.90;;;;;;5094212;28;20024;-74
2021/12/28 06:50:48;;;;;;;82.15;29.90;;;-5.70;99.90;;;;;;5092879;28;20036;-73
2021/12/28 06:53:15;;;;;;;65.82;24.48;;;-5.70;99.90;;;;;;5094550;28;20016;-73
2021/12/28 06:55:40;;;;;;;65.47;25.83;;;-5.70;99.90;;;;;;5092864;28;20043;-73
2021/12/28 06:58:06;;;;;;;67.90;25.67;;;-5.70;99.90;;;;;;5092809;28;20491;-74
2021/12/28 07:00:32;;;;;;;52.45;23.45;;;-5.80;99.90;;;;;;5092572;28;20020;-74
2021/12/28 07:02:59;;;;;;;59.15;25.58;;;-5.80;99.90;;;;;;5092085;28;20103;-74
2021/12/28 07:05:25;;;;;;;56.50;24.17;;;-5.90;99.90;;;;;;5092623;28;20027;-74
2021/12/28 07:07:50;;;;;;;61.35;25.50;;;-5.90;99.90;;;;;;5092859;28;20016;-73
2021/12/28 07:10:20;;;;;;;53.53;21.17;;;-5.90;99.90;;;;;;5093764;28;20032;-73
2021/12/28 07:12:48;;;;;;;50.08;20.83;;;-5.90;99.90;;;;;;5093889;28;20412;-73
2021/12/28 07:15:14;;;;;;;41.78;19.20;;;-5.90;99.90;;;;;;5094062;28;20427;-73
2021/12/28 07:17:40;;;;;;;55.78;22.55;;;-6.00;99.90;;;;;;5094020;28;20020;-75
2021/12/28 07:20:08;;;;;;;53.50;22.88;;;-6.00;99.90;;;;;;5093541;28;20099;-73
2021/12/28 07:22:34;;;;;;;60.05;25.00;;;-6.00;99.90;;;;;;5092265;28;20438;-73
2021/12/28 07:24:59;;;;;;;54.25;21.10;;;-6.00;99.90;;;;;;5092179;28;20031;-73
2021/12/28 07:27:25;;;;;;;52.22;20.98;;;-6.00;99.90;;;;;;5092175;28;20529;-73
2021/12/28 07:29:51;;;;;;;66.43;28.38;;;-5.90;99.90;;;;;;5092175;28;20036;-73
2021/12/28 07:32:16;;;;;;;52.72;23.08;;;-5.90;99.90;;;;;;5092225;28;20027;-73
2021/12/28 07:34:42;;;;;;;61.47;27.40;;;-5.90;99.90;;;;;;5093359;28;20024;-73
2021/12/28 07:37:08;;;;;;;40.45;20.88;;;-5.80;99.90;;;;;;5093473;28;20028;-75
2021/12/28 07:39:33;;;;;;;41.85;18.73;;;-5.80;99.90;;;;;;5092216;28;20472;-74
2021/12/28 07:41:59;;;;;;;51.83;22.17;;;-5.90;99.90;;;;;;5113784;28;20077;-76
2021/12/28 07:44:25;;;;;;;56.00;24.77;;;-5.90;99.90;;;;;;5111990;28;20039;-75
2021/12/28 07:46:51;;;;;;;52.08;24.63;;;-6.00;99.90;;;;;;5113484;28;20123;-75
2021/12/28 07:49:16;;;;;;;64.65;23.67;;;-5.90;99.90;;;;;;5112077;28;20027;-75
2021/12/28 07:51:42;;;;;;;51.60;24.25;;;-5.90;99.90;;;;;;5112278;28;20481;-75
2021/12/28 07:54:07;;;;;;;54.17;20.65;;;-5.90;99.90;;;;;;5113447;28;20051;-75
2021/12/28 07:56:33;;;;;;;56.35;22.42;;;-5.90;99.90;;;;;;5111972;28;20023;-75
2021/12/28 07:58:58;;;;;;;54.30;23.15;;;-5.90;99.90;;;;;;5099133;28;20028;-75
2021/12/28 08:01:24;;;;;;;50.03;22.83;;;-5.80;99.90;;;;;;5112025;28;20023;-75
2021/12/28 08:03:50;;;;;;;55.72;22.35;;;-5.90;99.90;;;;;;5108012;28;20484;-75
2021/12/28 08:06:15;;;;;;;50.28;20.65;;;-5.80;99.90;;;;;;5089419;28;20038;-75
2021/12/28 08:08:41;;;;;;;47.70;20.08;;;-5.80;99.90;;;;;;5102281;28;20027;-76
2021/12/28 08:11:07;;;;;;;49.05;19.85;;;-5.80;99.90;;;;;;5109949;28;20486;-75
2021/12/28 08:13:32;;;;;;;48.67;20.80;;;-5.70;99.90;;;;;;5109540;28;20012;-75
2021/12/28 08:15:58;;;;;;;47.42;21.70;;;-5.80;99.90;;;;;;5091225;28;20496;-75
2021/12/28 08:18:24;;;;;;;42.72;19.77;;;-5.70;99.90;;;;;;5091711;28;20434;-76
2021/12/28 08:20:49;;;;;;;52.05;20.20;;;-5.80;99.90;;;;;;5092474;28;20016;-75
2021/12/28 08:23:15;;;;;;;46.92;20.58;;;-5.80;99.90;;;;;;5092601;28;20098;-75
2021/12/28 08:25:41;;;;;;;55.65;24.17;;;-5.70;99.90;;;;;;5092375;28;20020;-75
2021/12/28 08:28:07;;;;;;;50.97;24.38;;;-5.70;99.90;;;;;;5092199;28;20052;-76
2021/12/28 08:30:36;;;;;;;51.50;22.08;;;-5.70;99.90;;;;;;5090966;28;20089;-75
2021/12/28 08:33:06;;;;;;;48.72;20.10;;;-5.70;99.90;;;;;;5091095;28;20024;-75
2021/12/28 08:35:33;;;;;;;43.20;20.27;;;-5.70;99.90;;;;;;5091017;28;20031;-75
2021/12/28 08:37:59;;;;;;;53.35;23.15;;;-5.60;99.90;;;;;;5091036;28;20385;-75
2021/12/28 08:40:25;;;;;;;46.58;20.10;;;-5.70;99.90;;;;;;5090945;28;20020;-75
2021/12/28 08:42:51;;;;;;;42.17;18.02;;;-5.70;99.90;;;;;;5090912;28;20016;-75
2021/12/28 08:45:25;;;;;;;51.28;22.52;;;-5.70;99.90;;;;;;5088816;28;20393;-75
2021/12/28 08:47:52;;;;;;;47.47;19.58;;;-5.60;99.90;;;;;;5088878;28;20444;-75
2021/12/28 08:50:19;;;;;;;57.00;26.50;;;-5.60;99.90;;;;;;5088548;28;20060;-75
2021/12/28 08:52:45;;;;;;;46.90;18.95;;;-5.60;99.90;;;;;;5087494;28;20066;-76
2021/12/28 08:55:10;;;;;;;47.97;22.90;;;-5.50;99.90;;;;;;5076380;28;20021;-75
2021/12/28 08:57:37;;;;;;;46.58;20.20;;;-5.40;99.90;;;;;;5068497;28;20033;-76
2021/12/28 09:00:07;;;;;;;48.25;21.40;;;-5.30;99.90;;;;;;5068451;28;20163;-76
2021/12/28 09:02:32;;;;;;;50.45;20.75;;;-5.30;99.90;;;;;;5067278;28;20059;-75
2021/12/28 09:04:58;;;;;;;48.08;19.40;;;-5.20;99.90;;;;;;5066989;28;20022;-75
2021/12/28 09:07:24;;;;;;;43.88;21.42;;;-5.30;99.90;;;;;;5074073;28;20032;-76
2021/12/28 09:09:49;;;;;;;45.38;20.67;;;-5.30;99.90;;;;;;5085085;28;20017;-75
2021/12/28 09:12:15;;;;;;;43.28;22.63;;;-5.30;99.90;;;;;;5085800;28;20237;-75
2021/12/28 09:14:42;;;;;;;46.83;20.65;;;-5.20;99.90;;;;;;5088243;28;20359;-75
2021/12/28 09:17:08;;;;;;;56.53;22.23;;;-5.20;99.90;;;;;;5087280;28;20089;-75
2021/12/28 09:19:34;;;;;;;55.60;25.48;;;-5.20;99.90;;;;;;5087641;28;20020;-75
2021/12/28 09:21:59;;;;;;;51.97;24.75;;;-5.20;99.90;;;;;;5084219;28;20013;-76
2021/12/28 09:24:25;;;;;;;56.83;24.48;;;-5.10;99.90;;;;;;5084047;28;20097;-75
2021/12/28 09:26:52;;;;;;;54.63;22.65;;;-5.10;99.90;;;;;;5073317;28;20378;-75
2021/12/28 09:29:17;;;;;;;51.17;24.98;;;-5.10;99.90;;;;;;5084503;28;20259;-75
2021/12/28 09:31:43;;;;;;;44.35;21.92;;;-5.00;99.90;;;;;;5086589;28;20099;-76
2021/12/28 09:34:09;;;;;;;56.55;24.02;;;-4.90;99.90;;;;;;5085072;28;20032;-76
2021/12/28 09:36:35;;;;;;;49.05;22.73;;;-4.90;99.90;;;;;;5085093;28;20024;-76
2021/12/28 09:39:01;;;;;;;53.83;22.27;;;-4.80;99.90;;;;;;5082449;28;20033;-75
2021/12/28 09:41:27;;;;;;;48.25;22.25;;;-4.80;99.90;;;;;;5083700;28;20100;-75
2021/12/28 09:43:52;;;;;;;47.17;21.90;;;-4.80;99.90;;;;;;5080340;28;20119;-75
2021/12/28 09:46:18;;;;;;;49.22;22.50;;;-4.80;99.90;;;;;;5083158;28;20048;-76
2021/12/28 09:48:44;;;;;;;55.10;22.88;;;-4.90;99.90;;;;;;5084899;27;20111;-76
2021/12/28 09:51:10;;;;;;;54.70;26.27;;;-4.80;99.90;;;;;;5084960;28;20008;-75
2021/12/28 09:53:37;;;;;;;44.50;23.05;;;-4.90;99.90;;;;;;5080964;28;20390;-76
2021/12/28 09:56:05;;;;;;;53.25;25.58;;;-4.90;99.90;;;;;;5076826;28;20232;-76
2021/12/28 09:58:34;;;;;;;55.90;24.52;;;-4.90;99.90;;;;;;5072755;28;20036;-75
2021/12/28 10:01:00;;;;;;;50.42;22.67;;;-4.80;99.90;;;;;;5071540;28;20436;-76
2021/12/28 10:03:26;;;;;;;50.65;22.67;;;-4.80;99.90;;;;;;5072645;28;20048;-76
2021/12/28 10:05:51;;;;;;;57.05;25.38;;;-4.80;99.90;;;;;;5073140;28;20074;-76
2021/12/28 10:08:23;;;;;;;48.67;20.00;;;-4.90;99.90;;;;;;5070195;28;20077;-77
2021/12/28 10:10:49;;;;;;;48.00;23.58;;;-4.80;99.90;;;;;;5068330;28;20111;-77
2021/12/28 10:13:20;;;;;;;46.35;21.70;;;-4.70;99.90;;;;;;5068110;28;20350;-76
2021/12/28 10:15:48;;;;;;;42.67;20.30;;;-4.80;99.90;;;;;;5068402;28;20029;-77
2021/12/28 10:18:14;;;;;;;49.17;24.13;;;-4.80;99.90;;;;;;5067498;28;20013;-77
2021/12/28 10:20:50;;;;;;;47.40;22.13;;;-4.80;99.90;;;;;;5067830;28;20035;-77
2021/12/28 10:23:19;;;;;;;39.58;19.08;;;-4.70;99.90;;;;;;5061747;28;20017;-76
2021/12/28 10:25:49;;;;;;;45.00;20.55;;;-4.80;99.90;;;;;;5069493;28;20097;-76
2021/12/28 10:28:19;;;;;;;48.08;21.02;;;-4.70;99.90;;;;;;5066885;28;20024;-77
2021/12/28 10:30:56;;;;;;;49.80;22.90;;;-4.70;99.90;;;;;;5069199;28;20506;-77
2021/12/28 10:33:24;;;;;;;40.13;18.42;;;-4.60;99.90;;;;;;5070542;28;20060;-77
2021/12/28 10:35:56;;;;;;;51.08;22.92;;;-4.70;99.90;;;;;;5071729;28;20029;-77
2021/12/28 10:38:34;;;;;;;47.70;21.60;;;-4.70;99.90;;;;;;5067769;28;20459;-77
2021/12/28 10:41:07;;;;;;;50.10;22.08;;;-4.80;99.90;;;;;;5049675;28;20321;-77
2021/12/28 10:43:35;;;;;;;51.92;24.92;;;-4.80;99.90;;;;;;5048556;28;20119;-77
2021/12/28 10:46:09;;;;;;;56.78;23.13;;;-4.90;99.90;;;;;;5056035;28;20024;-76
2021/12/28 10:48:54;;;;;;;54.05;22.08;;;-4.80;99.90;;;;;;5071167;28;20071;-77
2021/12/28 10:51:42;;;;;;;43.85;22.42;;;-4.90;99.90;;;;;;5061044;28;20103;-77
2021/12/28 10:54:12;;;;;;;44.10;22.67;;;-4.80;99.90;;;;;;5060754;28;20036;-76
2021/12/28 10:56:39;;;;;;;59.40;24.35;;;-4.80;99.90;;;;;;5064012;28;20024;-76
2021/12/28 10:59:07;;;;;;;46.75;20.38;;;-4.80;99.90;;;;;;5059220;28;20033;-77
2021/12/28 11:01:35;;;;;;;43.67;19.65;;;-4.80;99.90;;;;;;5061354;28;20433;-77
2021/12/28 11:04:09;;;;;;;52.65;23.60;;;-4.90;99.90;;;;;;5062102;28;20036;-76
2021/12/28 11:06:51;;;;;;;43.03;20.65;;;-4.90;99.90;;;;;;5059651;28;20102;-77
2021/12/28 11:09:19;;;;;;;50.45;22.95;;;-4.90;99.90;;;;;;5052535;28;20107;-77
2021/12/28 11:11:45;;;;;;;50.25;23.75;;;-4.90;99.90;;;;;;5056909;28;20013;-77
2021/12/28 11:14:20;;;;;;;51.78;22.90;;;-4.80;99.90;;;;;;5061545;28;20700;-77
2021/12/28 11:16:50;;;;;;;52.50;23.30;;;-4.70;99.90;;;;;;5064284;28;20336;-77
2021/12/28 11:19:27;;;;;;;59.80;25.13;;;-4.70;99.90;;;;;;5057479;28;20052;-77
2021/12/28 11:22:05;;;;;;;53.42;25.80;;;-4.60;99.90;;;;;;5060672;28;20024;-77
2021/12/28 11:24:34;;;;;;;47.78;23.25;;;-4.80;99.90;;;;;;5060230;28;20041;-77
2021/12/28 11:27:03;;;;;;;47.63;24.23;;;-4.80;99.90;;;;;;5060278;28;20017;-77
2021/12/28 11:29:37;;;;;;;58.30;24.70;;;-4.80;99.90;;;;;;5057202;28;20040;-76
2021/12/28 11:32:12;;;;;;;54.05;23.98;;;-4.80;99.90;;;;;;5057930;28;20012;-75
2021/12/28 11:34:39;;;;;;;55.00;25.20;;;-4.80;99.90;;;;;;5066127;28;20035;-75
2021/12/28 11:37:12;;;;;;;50.60;23.13;;;-4.80;99.90;;;;;;5069256;28;20024;-76
2021/12/28 11:39:45;;;;;;;49.33;22.75;;;-4.80;99.90;;;;;;5066727;28;20036;-76
2021/12/28 11:42:13;;;;;;;45.88;23.73;;;-4.80;99.90;;;;;;5069323;28;20143;-76
2021/12/28 11:44:39;;;;;;;54.33;23.73;;;-4.80;99.90;;;;;;5068169;28;20137;-75
2021/12/28 11:47:08;;;;;;;50.33;22.45;;;-4.90;99.90;;;;;;5066059;28;20074;-76
2021/12/28 11:49:35;;;;;;;42.35;20.00;;;-5.00;99.90;;;;;;5065952;28;20104;-76
2021/12/28 11:52:06;;;;;;;53.83;23.13;;;-5.00;99.90;;;;;;5069664;28;20023;-76
2021/12/28 11:54:35;;;;;;;40.38;21.55;;;-4.90;99.90;;;;;;5065108;28;20020;-76
2021/12/28 11:57:13;;;;;;;54.10;20.55;;;-5.00;99.90;;;;;;5067533;28;20052;-76
2021/12/28 11:59:49;;;;;;;51.88;23.73;;;-5.00;99.90;;;;;;5069071;28;20126;-76
2021/12/28 12:02:15;;;;;;;48.45;23.05;;;-4.90;99.90;;;;;;5062085;28;20035;-76
2021/12/28 12:04:42;;;;;;;58.05;26.65;;;-4.80;99.90;;;;;;5050715;28;20029;-76
2021/12/28 12:07:14;;;;;;;56.67;25.10;;;-4.80;99.90;;;;;;5064804;28;20029;-76
2021/12/28 12:09:49;;;;;;;55.85;26.40;;;-4.70;99.90;;;;;;5066174;28;20052;-76
2021/12/28 12:12:19;;;;;;;54.10;25.58;;;-4.70;99.90;;;;;;5063171;28;20021;-75
2021/12/28 12:14:54;;;;;;;55.72;24.80;;;-4.70;99.90;;;;;;5066150;28;20568;-74
2021/12/28 12:17:29;;;;;;;53.20;25.35;;;-4.80;99.90;;;;;;5054050;28;20060;-74
2021/12/28 12:19:58;;;;;;;52.33;23.77;;;-4.80;99.90;;;;;;5056881;28;20091;-75
2021/12/28 12:22:39;;;;;;;59.20;26.85;;;-4.70;99.90;;;;;;5062175;28;20351;-75
2021/12/28 12:25:10;;;;;;;66.63;29.25;;;-4.70;99.90;;;;;;5056238;28;20036;-75
2021/12/28 12:27:54;;;;;;;99.43;39.55;;;-4.70;99.90;;;;;;5057758;28;20029;-76
2021/12/28 12:30:25;;;;;;;163.07;61.50;;;-4.80;99.90;;;;;;5063659;28;20429;-75